createdAt,value
2022-08-21T00:01:24.908Z,18.90
2022-08-21T00:06:26.627Z,18.80
2022-08-21T00:11:28.369Z,18.80
2022-08-21T00:16:30.124Z,18.80
2022-08-21T00:21:31.863Z,18.70
2022-08-21T00:26:33.712Z,18.70
2022-08-21T00:31:35.393Z,18.60
2022-08-21T00:36:37.677Z,18.70
2022-08-21T00:41:40.791Z,18.70
2022-08-21T00:46:43.941Z,18.70
2022-08-21T00:51:54.130Z,18.70
2022-08-21T00:57:03.718Z,18.70
2022-08-21T01:02:08.284Z,18.70
2022-08-21T01:07:10.727Z,18.70
2022-08-21T01:12:13.444Z,18.70
2022-08-21T01:17:16.539Z,18.70
2022-08-21T01:22:18.438Z,18.80
2022-08-21T01:27:20.429Z,18.90
2022-08-21T01:32:22.257Z,19.00
2022-08-21T01:37:23.967Z,18.90
2022-08-21T01:42:26.626Z,18.80
2022-08-21T01:47:28.410Z,18.80
2022-08-21T01:52:30.347Z,18.70
2022-08-21T01:57:33.803Z,18.70
2022-08-21T02:02:35.516Z,18.60
2022-08-21T02:07:43.351Z,18.50
2022-08-21T02:12:45.211Z,18.40
2022-08-21T02:17:51.870Z,18.40
2022-08-21T02:22:54.285Z,18.40
2022-08-21T02:27:56.420Z,18.40
2022-08-21T02:33:00.328Z,18.30
2022-08-21T02:38:05.566Z,18.30
2022-08-21T02:43:08.331Z,18.20
2022-08-21T02:48:17.411Z,18.20
2022-08-21T02:53:19.691Z,18.20
2022-08-21T02:58:25.288Z,18.10
2022-08-21T03:03:29.051Z,18.10
2022-08-21T03:08:30.773Z,18.10
2022-08-21T03:13:33.056Z,18.10
2022-08-21T03:18:35.146Z,18.00
2022-08-21T03:23:38.524Z,17.90
2022-08-21T03:28:40.586Z,17.90
2022-08-21T03:33:42.297Z,17.90
2022-08-21T03:38:44.047Z,17.90
2022-08-21T03:43:45.713Z,18.00
2022-08-21T03:48:47.559Z,18.00
2022-08-21T03:53:49.261Z,18.00
2022-08-21T03:58:50.944Z,18.00
2022-08-21T04:03:52.658Z,18.00
2022-08-21T04:08:55.024Z,17.90
2022-08-21T04:13:56.731Z,17.90
2022-08-21T04:18:58.424Z,17.80
2022-08-21T04:24:00.411Z,17.90
2022-08-21T04:29:03.013Z,17.90
2022-08-21T04:34:06.121Z,17.90
2022-08-21T04:39:07.860Z,18.00
2022-08-21T04:44:12.531Z,18.00
2022-08-21T04:49:14.218Z,18.10
2022-08-21T04:54:19.334Z,18.20
2022-08-21T04:59:36.338Z,18.20
2022-08-21T05:04:53.739Z,18.20
2022-08-21T05:09:55.886Z,18.20
2022-08-21T05:14:57.587Z,18.20
2022-08-21T05:19:59.314Z,18.20
2022-08-21T05:25:01.112Z,18.20
2022-08-21T05:30:04.839Z,18.30
2022-08-21T05:35:08.010Z,18.50
2022-08-21T05:40:21.594Z,18.50
2022-08-21T05:45:41.468Z,18.70
2022-08-21T05:50:47.689Z,18.80
2022-08-21T05:55:49.875Z,18.70
2022-08-21T06:00:53.734Z,18.90
2022-08-21T06:05:56.635Z,19.00
2022-08-21T06:11:00.936Z,19.00
2022-08-21T06:16:09.077Z,19.20
2022-08-21T06:21:12.354Z,19.30
2022-08-21T06:26:15.195Z,19.50
2022-08-21T06:31:20.993Z,19.10
2022-08-21T06:36:23.005Z,19.00
2022-08-21T06:41:26.529Z,19.10
2022-08-21T06:46:31.320Z,19.30
2022-08-21T06:51:33.021Z,19.60
2022-08-21T06:56:36.275Z,19.70
2022-08-21T07:01:38.316Z,19.80
2022-08-21T07:06:40.286Z,19.30
2022-08-21T07:11:44.212Z,19.50
2022-08-21T07:16:50.351Z,19.40
2022-08-21T07:22:01.311Z,19.50
2022-08-21T07:27:06.035Z,19.70
2022-08-21T07:32:09.995Z,20.10
2022-08-21T07:37:11.684Z,20.30
2022-08-21T07:42:13.427Z,20.70
2022-08-21T07:47:15.336Z,21.20
2022-08-21T07:52:17.122Z,20.90
2022-08-21T07:57:18.837Z,20.50
2022-08-21T08:02:25.730Z,20.60
2022-08-21T08:07:27.557Z,20.70
2022-08-21T08:12:30.536Z,20.70
2022-08-21T08:17:33.317Z,21.10
2022-08-21T08:22:36.304Z,20.80
2022-08-21T08:27:38.707Z,21.50
2022-08-21T08:32:40.679Z,21.60
2022-08-21T08:37:43.736Z,21.30
2022-08-21T08:42:51.333Z,21.60
2022-08-21T08:48:06.535Z,21.50
2022-08-21T08:53:25.258Z,21.60
2022-08-21T08:58:31.859Z,21.50
2022-08-21T09:03:34.989Z,21.90
2022-08-21T09:09:30.657Z,21.90
2022-08-21T09:14:56.952Z,21.80
2022-08-21T09:20:20.484Z,22.40
2022-08-21T09:25:26.602Z,22.80
2022-08-21T09:30:32.459Z,22.90
2022-08-21T09:35:36.181Z,23.00
2022-08-21T09:40:45.848Z,23.40
2022-08-21T09:45:49.457Z,23.40
2022-08-21T09:50:52.519Z,23.10
2022-08-21T09:56:21.499Z,23.10
2022-08-21T10:01:27.040Z,22.80
2022-08-21T10:06:30.095Z,22.40
2022-08-21T10:11:33.904Z,22.60
2022-08-21T10:17:05.777Z,22.90
2022-08-21T10:22:45.281Z,23.00
2022-08-21T10:27:55.769Z,22.50
2022-08-21T10:33:13.468Z,22.70
2022-08-21T10:39:07.398Z,22.40
2022-08-21T10:44:32.690Z,22.60
2022-08-21T10:49:46.908Z,22.60
2022-08-21T10:55:18.379Z,22.50
2022-08-21T11:00:24.060Z,22.50
2022-08-21T11:05:29.221Z,22.60
2022-08-21T11:10:59.362Z,22.70
2022-08-21T11:16:12.051Z,22.90
2022-08-21T11:21:47.467Z,22.90
2022-08-21T11:27:12.993Z,23.10
2022-08-21T11:32:45.701Z,23.40
2022-08-21T11:37:47.709Z,23.60
2022-08-21T11:43:01.589Z,23.20
2022-08-21T11:48:23.882Z,23.10
2022-08-21T11:53:39.088Z,23.20
2022-08-21T11:58:50.009Z,23.50
2022-08-21T12:04:22.481Z,23.80
2022-08-21T12:09:35.633Z,23.80
2022-08-21T12:14:49.620Z,24.10
2022-08-21T12:20:22.129Z,24.40
2022-08-21T12:25:24.046Z,24.30
2022-08-21T12:30:28.496Z,24.20
2022-08-21T12:35:50.703Z,24.50
2022-08-21T12:41:04.932Z,24.70
2022-08-21T12:46:06.825Z,24.80
2022-08-21T12:51:12.172Z,24.80
2022-08-21T12:56:17.628Z,24.70
2022-08-21T13:01:38.208Z,25.00
2022-08-21T13:06:46.976Z,25.60
2022-08-21T13:11:50.033Z,25.50
2022-08-21T13:16:56.961Z,25.10
2022-08-21T13:21:59.454Z,24.70
2022-08-21T13:27:01.347Z,24.90
2022-08-21T13:32:05.563Z,24.80
2022-08-21T13:37:11.975Z,25.60
2022-08-21T13:42:14.174Z,25.40
2022-08-21T13:47:17.338Z,25.00
2022-08-21T13:52:26.659Z,24.80
2022-08-21T13:57:34.336Z,25.40
2022-08-21T14:02:41.320Z,25.70
2022-08-21T14:07:45.086Z,25.50
2022-08-21T14:12:53.598Z,26.20
2022-08-21T14:18:07.756Z,26.20
2022-08-21T14:23:09.648Z,26.90
2022-08-21T14:28:33.240Z,26.90
2022-08-21T14:33:36.086Z,26.20
2022-08-21T14:38:41.188Z,25.90
2022-08-21T14:43:44.491Z,26.50
2022-08-21T14:48:47.620Z,26.20
2022-08-21T14:53:49.501Z,26.10
2022-08-21T14:58:52.851Z,26.30
2022-08-21T15:03:54.562Z,26.60
2022-08-21T15:08:56.865Z,25.80
2022-08-21T15:14:02.734Z,25.70
2022-08-21T15:19:05.778Z,25.70
2022-08-21T15:24:07.526Z,26.40
2022-08-21T15:29:09.601Z,26.60
2022-08-21T15:34:12.212Z,26.70
2022-08-21T15:39:13.966Z,27.10
2022-08-21T15:44:16.839Z,27.50
2022-08-21T15:49:18.592Z,27.50
2022-08-21T15:54:20.284Z,27.70
2022-08-21T15:59:23.360Z,28.30
2022-08-21T16:04:27.961Z,28.70
2022-08-21T16:09:29.656Z,27.50
2022-08-21T16:14:32.618Z,27.70
2022-08-21T16:19:35.730Z,28.00
2022-08-21T16:24:37.501Z,28.40
2022-08-21T16:29:41.468Z,27.40
2022-08-21T16:34:48.675Z,27.20
2022-08-21T16:39:50.484Z,27.60
2022-08-21T16:44:56.410Z,27.70
2022-08-21T16:49:58.484Z,27.60
2022-08-21T16:55:00.212Z,27.60
2022-08-21T17:00:04.736Z,27.60
2022-08-21T17:05:06.807Z,27.50
2022-08-21T17:10:17.118Z,27.30
2022-08-21T17:15:29.588Z,27.20
2022-08-21T17:20:31.685Z,27.40
2022-08-21T17:25:36.872Z,27.00
2022-08-21T17:30:42.819Z,26.90
2022-08-21T17:35:44.497Z,27.00
2022-08-21T17:40:47.886Z,26.60
2022-08-21T17:45:50.067Z,26.50
2022-08-21T17:50:51.863Z,26.10
2022-08-21T17:55:53.729Z,25.80
2022-08-21T18:00:55.459Z,25.40
2022-08-21T18:05:57.713Z,25.10
2022-08-21T18:11:00.151Z,24.90
2022-08-21T18:16:02.312Z,24.70
2022-08-21T18:21:04.884Z,24.50
2022-08-21T18:26:07.559Z,24.20
2022-08-21T18:31:11.085Z,23.90
2022-08-21T18:36:12.779Z,23.70
2022-08-21T18:41:14.567Z,23.50
2022-08-21T18:46:17.340Z,23.30
2022-08-21T18:51:19.188Z,23.10
2022-08-21T18:56:21.088Z,23.00
2022-08-21T19:01:23.239Z,22.70
2022-08-21T19:06:26.206Z,22.70
2022-08-21T19:11:28.608Z,22.50
2022-08-21T19:16:31.418Z,22.40
2022-08-21T19:21:33.506Z,22.20
2022-08-21T19:26:36.107Z,22.10
2022-08-21T19:31:43.459Z,21.90
2022-08-21T19:36:45.598Z,21.80
2022-08-21T19:41:51.324Z,21.70
2022-08-21T19:46:54.909Z,21.60
2022-08-21T19:51:58.538Z,21.50
2022-08-21T20:02:25.954Z,21.30
2022-08-21T20:07:27.709Z,21.20
2022-08-21T20:12:29.581Z,21.10
2022-08-21T20:17:31.469Z,21.00
2022-08-21T20:22:33.625Z,20.90
2022-08-21T20:27:40.489Z,20.80
2022-08-21T20:38:04.507Z,20.70
2022-08-21T20:43:08.027Z,20.50
2022-08-21T20:48:49.653Z,20.40
2022-08-21T20:54:03.303Z,20.20
2022-08-21T20:59:19.555Z,20.10
2022-08-21T21:04:37.211Z,20.00
2022-08-21T21:09:46.833Z,19.90
2022-08-21T21:14:58.210Z,19.80
2022-08-21T21:20:13.682Z,19.80
2022-08-21T21:25:40.683Z,19.60
2022-08-21T21:30:46.469Z,19.50
2022-08-21T21:36:02.643Z,19.50
2022-08-21T21:41:22.593Z,19.40
2022-08-21T21:46:48.621Z,19.30
2022-08-21T21:52:10.313Z,19.20
2022-08-21T21:57:37.624Z,19.10
2022-08-21T22:02:59.771Z,19.00
2022-08-21T22:08:08.052Z,19.00
2022-08-21T22:13:26.582Z,18.90
2022-08-21T22:18:44.953Z,18.90
2022-08-21T22:23:52.551Z,18.80
2022-08-21T22:28:55.203Z,18.70
2022-08-21T22:34:20.895Z,18.70
2022-08-21T22:39:46.075Z,18.60
2022-08-21T22:44:57.085Z,18.60
2022-08-21T22:55:31.085Z,18.50
2022-08-21T23:00:57.623Z,18.40
2022-08-21T23:06:03.113Z,18.30
2022-08-21T23:11:21.065Z,18.20
2022-08-21T23:16:48.089Z,18.10
2022-08-21T23:22:20.282Z,18.10
2022-08-21T23:27:56.536Z,18.00
2022-08-21T23:33:13.527Z,17.90
2022-08-21T23:38:53.402Z,17.90
2022-08-21T23:44:06.325Z,17.80
2022-08-21T23:49:29.332Z,17.80
2022-08-21T23:54:46.181Z,17.70
